sensor_id;sensor_type;location;lat;lon;timestamp;pressure;altitude;pressure_sealevel;temperature;humidity
41250;BME280;26984;59.928;30.306;2023-04-19T00:01:51;103011.66;;;5.37;42.29
41250;BME280;26984;59.928;30.306;2023-04-19T00:04:20;103007.56;;;5.33;42.39
41250;BME280;26984;59.928;30.306;2023-04-19T00:06:47;103003.44;;;5.17;42.05
41250;BME280;26984;59.928;30.306;2023-04-19T00:09:16;102998.59;;;5.11;42.75
41250;BME280;26984;59.928;30.306;2023-04-19T00:11:44;103011.25;;;5.09;43.81
41250;BME280;26984;59.928;30.306;2023-04-19T00:14:11;103004.16;;;5.08;43.06
41250;BME280;26984;59.928;30.306;2023-04-19T00:16:39;103016.31;;;5.12;43.34
41250;BME280;26984;59.928;30.306;2023-04-19T00:19:06;103003.69;;;5.03;43.49
41250;BME280;26984;59.928;30.306;2023-04-19T00:21:35;103018.75;;;5.04;44.19
41250;BME280;26984;59.928;30.306;2023-04-19T00:24:03;103021.56;;;4.91;44.63
41250;BME280;26984;59.928;30.306;2023-04-19T00:26:31;103027.63;;;4.93;45.59
41250;BME280;26984;59.928;30.306;2023-04-19T00:28:58;103015.84;;;4.85;45.57
41250;BME280;26984;59.928;30.306;2023-04-19T00:31:26;103018.13;;;4.78;46.26
41250;BME280;26984;59.928;30.306;2023-04-19T00:33:54;103019.47;;;4.72;45.94
41250;BME280;26984;59.928;30.306;2023-04-19T00:36:21;103028.69;;;4.79;46.17
41250;BME280;26984;59.928;30.306;2023-04-19T00:38:50;103028.31;;;4.73;46.39
41250;BME280;26984;59.928;30.306;2023-04-19T00:41:17;103032.34;;;4.67;45.79
41250;BME280;26984;59.928;30.306;2023-04-19T00:43:45;103028.19;;;4.63;46.40
41250;BME280;26984;59.928;30.306;2023-04-19T00:46:12;103036.28;;;4.50;46.77
41250;BME280;26984;59.928;30.306;2023-04-19T00:48:40;103023.47;;;4.55;47.48
41250;BME280;26984;59.928;30.306;2023-04-19T00:51:11;103028.28;;;4.50;47.49
41250;BME280;26984;59.928;30.306;2023-04-19T00:53:38;103031.56;;;4.54;47.13
41250;BME280;26984;59.928;30.306;2023-04-19T00:56:08;103024.53;;;4.53;47.00
41250;BME280;26984;59.928;30.306;2023-04-19T00:58:35;103019.91;;;4.55;47.63
41250;BME280;26984;59.928;30.306;2023-04-19T01:01:04;103018.47;;;4.62;46.90
41250;BME280;26984;59.928;30.306;2023-04-19T01:03:31;103021.66;;;4.67;47.03
41250;BME280;26984;59.928;30.306;2023-04-19T01:05:59;103025.03;;;4.58;47.44
41250;BME280;26984;59.928;30.306;2023-04-19T01:08:27;103029.66;;;4.56;47.52
41250;BME280;26984;59.928;30.306;2023-04-19T01:10:54;103027.81;;;4.56;47.71
41250;BME280;26984;59.928;30.306;2023-04-19T01:13:23;103028.91;;;4.54;47.35
41250;BME280;26984;59.928;30.306;2023-04-19T01:15:52;103042.00;;;4.57;48.12
41250;BME280;26984;59.928;30.306;2023-04-19T01:18:20;103036.28;;;4.50;48.77
41250;BME280;26984;59.928;30.306;2023-04-19T01:20:50;103028.44;;;4.60;48.61
41250;BME280;26984;59.928;30.306;2023-04-19T01:23:19;103044.66;;;4.46;49.53
41250;BME280;26984;59.928;30.306;2023-04-19T01:25:48;103036.44;;;4.49;50.63
41250;BME280;26984;59.928;30.306;2023-04-19T01:28:16;103040.75;;;4.39;51.45
41250;BME280;26984;59.928;30.306;2023-04-19T01:30:43;103036.09;;;4.29;52.04
41250;BME280;26984;59.928;30.306;2023-04-19T01:33:11;103039.16;;;4.36;52.17
41250;BME280;26984;59.928;30.306;2023-04-19T01:35:38;103047.13;;;4.25;52.29
41250;BME280;26984;59.928;30.306;2023-04-19T01:38:06;103043.84;;;4.21;53.41
41250;BME280;26984;59.928;30.306;2023-04-19T01:40:35;103046.88;;;4.17;53.98
41250;BME280;26984;59.928;30.306;2023-04-19T01:43:03;103041.81;;;4.25;55.10
41250;BME280;26984;59.928;30.306;2023-04-19T01:45:31;103052.59;;;4.23;54.62
41250;BME280;26984;59.928;30.306;2023-04-19T01:47:59;103055.59;;;4.19;55.43
41250;BME280;26984;59.928;30.306;2023-04-19T01:50:27;103049.31;;;4.20;55.78
41250;BME280;26984;59.928;30.306;2023-04-19T01:52:55;103048.03;;;4.13;56.48
41250;BME280;26984;59.928;30.306;2023-04-19T01:55:22;103043.78;;;3.99;57.60
41250;BME280;26984;59.928;30.306;2023-04-19T01:57:53;103043.78;;;3.99;58.39
41250;BME280;26984;59.928;30.306;2023-04-19T02:00:21;103048.22;;;3.98;59.36
41250;BME280;26984;59.928;30.306;2023-04-19T02:02:48;103049.56;;;3.93;59.80
41250;BME280;26984;59.928;30.306;2023-04-19T02:05:16;103049.59;;;4.04;60.44
41250;BME280;26984;59.928;30.306;2023-04-19T02:07:44;103040.97;;;4.00;59.42
41250;BME280;26984;59.928;30.306;2023-04-19T02:10:11;103050.66;;;4.01;61.02
41250;BME280;26984;59.928;30.306;2023-04-19T02:12:40;103046.13;;;3.91;61.34
41250;BME280;26984;59.928;30.306;2023-04-19T02:15:09;103044.66;;;3.87;62.68
41250;BME280;26984;59.928;30.306;2023-04-19T02:17:37;103041.50;;;3.81;63.62
41250;BME280;26984;59.928;30.306;2023-04-19T02:20:05;103046.25;;;3.89;62.99
41250;BME280;26984;59.928;30.306;2023-04-19T02:22:34;103039.53;;;3.83;63.34
41250;BME280;26984;59.928;30.306;2023-04-19T02:25:02;103045.00;;;3.82;64.10
41250;BME280;26984;59.928;30.306;2023-04-19T02:27:31;103029.28;;;3.66;63.96
41250;BME280;26984;59.928;30.306;2023-04-19T02:29:59;103030.59;;;3.60;65.70
41250;BME280;26984;59.928;30.306;2023-04-19T02:32:28;103047.00;;;3.67;65.21
41250;BME280;26984;59.928;30.306;2023-04-19T02:34:57;103041.19;;;3.73;65.92
41250;BME280;26984;59.928;30.306;2023-04-19T02:37:24;103048.03;;;3.77;65.89
41250;BME280;26984;59.928;30.306;2023-04-19T02:39:52;103036.25;;;3.80;66.14
41250;BME280;26984;59.928;30.306;2023-04-19T02:42:20;103040.31;;;3.86;67.43
41250;BME280;26984;59.928;30.306;2023-04-19T02:44:47;103040.31;;;3.86;66.35
41250;BME280;26984;59.928;30.306;2023-04-19T02:47:15;103034.97;;;3.86;67.76
41250;BME280;26984;59.928;30.306;2023-04-19T02:49:44;103027.06;;;3.84;68.45
41250;BME280;26984;59.928;30.306;2023-04-19T02:52:11;103033.28;;;3.84;69.14
41250;BME280;26984;59.928;30.306;2023-04-19T02:54:40;103043.94;;;3.84;68.62
41250;BME280;26984;59.928;30.306;2023-04-19T02:57:08;103032.78;;;3.91;69.40
41250;BME280;26984;59.928;30.306;2023-04-19T02:59:36;103035.81;;;3.86;69.22
41250;BME280;26984;59.928;30.306;2023-04-19T03:02:04;103027.94;;;3.84;69.95
41250;BME280;26984;59.928;30.306;2023-04-19T03:04:32;103026.63;;;3.90;70.75
41250;BME280;26984;59.928;30.306;2023-04-19T03:07:01;103036.88;;;3.83;71.34
41250;BME280;26984;59.928;30.306;2023-04-19T03:09:29;103035.69;;;3.88;70.67
41250;BME280;26984;59.928;30.306;2023-04-19T03:11:57;103037.00;;;3.82;71.43
41250;BME280;26984;59.928;30.306;2023-04-19T03:14:24;103042.13;;;3.85;72.36
41250;BME280;26984;59.928;30.306;2023-04-19T03:16:52;103042.00;;;3.87;73.58
41250;BME280;26984;59.928;30.306;2023-04-19T03:19:19;103047.72;;;3.93;73.02
41250;BME280;26984;59.928;30.306;2023-04-19T03:21:50;103052.84;;;3.96;73.39
41250;BME280;26984;59.928;30.306;2023-04-19T03:24:27;103034.84;;;4.11;73.45
41250;BME280;26984;59.928;30.306;2023-04-19T03:26:56;103038.25;;;4.13;73.10
41250;BME280;26984;59.928;30.306;2023-04-19T03:29:27;103037.53;;;4.22;73.35
41250;BME280;26984;59.928;30.306;2023-04-19T03:32:04;103039.97;;;4.25;73.51
41250;BME280;26984;59.928;30.306;2023-04-19T03:34:32;103040.38;;;4.32;72.91
41250;BME280;26984;59.928;30.306;2023-04-19T03:36:59;103045.88;;;4.42;73.10
41250;BME280;26984;59.928;30.306;2023-04-19T03:39:28;103040.66;;;4.51;72.71
41250;BME280;26984;59.928;30.306;2023-04-19T03:42:00;103044.44;;;4.60;72.31
41250;BME280;26984;59.928;30.306;2023-04-19T03:44:43;103048.81;;;4.61;72.53
41250;BME280;26984;59.928;30.306;2023-04-19T03:47:11;103040.56;;;4.53;72.73
41250;BME280;26984;59.928;30.306;2023-04-19T03:49:43;103034.47;;;4.51;73.83
41250;BME280;26984;59.928;30.306;2023-04-19T03:52:12;103033.25;;;4.44;74.51
41250;BME280;26984;59.928;30.306;2023-04-19T03:54:41;103034.09;;;4.44;75.05
41250;BME280;26984;59.928;30.306;2023-04-19T03:57:18;103030.94;;;4.50;75.54
41250;BME280;26984;59.928;30.306;2023-04-19T03:59:48;103035.22;;;4.53;74.86
41250;BME280;26984;59.928;30.306;2023-04-19T04:02:15;103038.97;;;4.62;74.55
41250;BME280;26984;59.928;30.306;2023-04-19T04:04:43;103040.34;;;4.67;73.59
41250;BME280;26984;59.928;30.306;2023-04-19T04:07:10;103027.69;;;4.69;75.13
41250;BME280;26984;59.928;30.306;2023-04-19T04:09:38;103040.81;;;4.72;75.01
41250;BME280;26984;59.928;30.306;2023-04-19T04:12:07;103059.72;;;4.58;75.71
41250;BME280;26984;59.928;30.306;2023-04-19T04:14:35;103051.94;;;4.55;76.19
41250;BME280;26984;59.928;30.306;2023-04-19T04:17:04;103049.19;;;4.56;76.55
41250;BME280;26984;59.928;30.306;2023-04-19T04:19:31;103052.47;;;4.60;77.27
41250;BME280;26984;59.928;30.306;2023-04-19T04:21:59;103055.13;;;4.60;76.69
41250;BME280;26984;59.928;30.306;2023-04-19T04:24:28;103053.28;;;4.49;76.65
41250;BME280;26984;59.928;30.306;2023-04-19T04:27:19;103051.84;;;4.56;77.76
41250;BME280;26984;59.928;30.306;2023-04-19T04:29:49;103057.59;;;4.74;77.52
41250;BME280;26984;59.928;30.306;2023-04-19T04:32:16;103058.44;;;4.75;77.30
41250;BME280;26984;59.928;30.306;2023-04-19T04:34:49;103059.66;;;4.82;76.70
41250;BME280;26984;59.928;30.306;2023-04-19T04:37:26;103070.97;;;4.86;76.79
41250;BME280;26984;59.928;30.306;2023-04-19T04:39:53;103062.47;;;4.80;77.14
41250;BME280;26984;59.928;30.306;2023-04-19T04:42:25;103064.47;;;4.66;77.68
41250;BME280;26984;59.928;30.306;2023-04-19T04:44:52;103061.25;;;4.73;78.15
41250;BME280;26984;59.928;30.306;2023-04-19T04:47:24;103062.56;;;4.79;77.96
41250;BME280;26984;59.928;30.306;2023-04-19T04:50:00;103060.75;;;4.91;77.36
41250;BME280;26984;59.928;30.306;2023-04-19T04:52:30;103066.38;;;4.99;77.16
41250;BME280;26984;59.928;30.306;2023-04-19T04:55:07;103067.34;;;5.09;75.61
41250;BME280;26984;59.928;30.306;2023-04-19T04:57:42;103068.28;;;5.08;76.20
41250;BME280;26984;59.928;30.306;2023-04-19T05:00:16;103069.19;;;5.20;75.51
41250;BME280;26984;59.928;30.306;2023-04-19T05:02:56;103063.09;;;5.18;75.44
41250;BME280;26984;59.928;30.306;2023-04-19T05:05:23;103074.84;;;5.15;75.34
41250;BME280;26984;59.928;30.306;2023-04-19T05:07:51;103073.91;;;5.16;75.71
41250;BME280;26984;59.928;30.306;2023-04-19T05:10:18;103072.69;;;5.20;74.93
41250;BME280;26984;59.928;30.306;2023-04-19T05:12:48;103072.31;;;5.25;75.15
41250;BME280;26984;59.928;30.306;2023-04-19T05:15:16;103074.88;;;5.49;75.29
41250;BME280;26984;59.928;30.306;2023-04-19T05:17:48;103077.84;;;5.78;73.17
41250;BME280;26984;59.928;30.306;2023-04-19T05:20:16;103078.94;;;5.98;70.84
41250;BME280;26984;59.928;30.306;2023-04-19T05:22:45;103075.69;;;6.15;69.94
41250;BME280;26984;59.928;30.306;2023-04-19T05:25:12;103077.09;;;6.31;68.93
41250;BME280;26984;59.928;30.306;2023-04-19T05:27:40;103082.25;;;6.43;67.80
41250;BME280;26984;59.928;30.306;2023-04-19T05:30:10;103082.94;;;6.57;67.06
41250;BME280;26984;59.928;30.306;2023-04-19T05:32:42;103088.88;;;6.60;65.99
41250;BME280;26984;59.928;30.306;2023-04-19T05:35:12;103096.41;;;6.66;65.12
41250;BME280;26984;59.928;30.306;2023-04-19T05:37:39;103101.03;;;6.64;65.61
41250;BME280;26984;59.928;30.306;2023-04-19T05:40:07;103102.47;;;6.68;65.23
41250;BME280;26984;59.928;30.306;2023-04-19T05:42:35;103100.34;;;6.83;65.59
41250;BME280;26984;59.928;30.306;2023-04-19T05:45:03;103088.72;;;6.83;64.08
41250;BME280;26984;59.928;30.306;2023-04-19T05:47:33;103096.75;;;7.04;64.75
41250;BME280;26984;59.928;30.306;2023-04-19T05:50:19;103091.69;;;7.31;63.67
41250;BME280;26984;59.928;30.306;2023-04-19T05:53:03;103098.81;;;7.52;61.70
41250;BME280;26984;59.928;30.306;2023-04-19T05:55:31;103098.97;;;7.60;60.89
41250;BME280;26984;59.928;30.306;2023-04-19T05:58:00;103093.34;;;7.63;59.98
41250;BME280;26984;59.928;30.306;2023-04-19T06:00:29;103099.81;;;7.60;58.87
41250;BME280;26984;59.928;30.306;2023-04-19T06:03:07;103093.88;;;7.47;58.93
41250;BME280;26984;59.928;30.306;2023-04-19T06:05:35;103101.19;;;7.45;58.35
41250;BME280;26984;59.928;30.306;2023-04-19T06:08:03;103108.25;;;7.46;58.20
41250;BME280;26984;59.928;30.306;2023-04-19T06:10:30;103100.19;;;7.46;59.15
41250;BME280;26984;59.928;30.306;2023-04-19T06:12:58;103105.75;;;7.54;58.85
41250;BME280;26984;59.928;30.306;2023-04-19T06:15:25;103098.28;;;7.67;58.27
41250;BME280;26984;59.928;30.306;2023-04-19T06:17:53;103102.13;;;7.75;57.35
41250;BME280;26984;59.928;30.306;2023-04-19T06:20:22;103103.56;;;7.88;55.99
41250;BME280;26984;59.928;30.306;2023-04-19T06:22:49;103104.44;;;7.99;56.33
41250;BME280;26984;59.928;30.306;2023-04-19T06:25:16;103099.78;;;8.10;56.25
41250;BME280;26984;59.928;30.306;2023-04-19T06:27:44;103105.03;;;8.31;54.94
41250;BME280;26984;59.928;30.306;2023-04-19T06:30:11;103108.91;;;8.58;55.00
41250;BME280;26984;59.928;30.306;2023-04-19T06:32:39;103102.50;;;8.69;53.36
41250;BME280;26984;59.928;30.306;2023-04-19T06:35:07;103106.06;;;8.59;52.92
41250;BME280;26984;59.928;30.306;2023-04-19T06:37:36;103106.31;;;8.56;53.12
41250;BME280;26984;59.928;30.306;2023-04-19T06:40:04;103104.66;;;8.65;53.13
41250;BME280;26984;59.928;30.306;2023-04-19T06:42:33;103098.72;;;8.61;53.61
41250;BME280;26984;59.928;30.306;2023-04-19T06:45:00;103107.03;;;8.68;52.39
41250;BME280;26984;59.928;30.306;2023-04-19T06:47:30;103112.53;;;8.67;52.56
41250;BME280;26984;59.928;30.306;2023-04-19T06:49:57;103111.44;;;8.59;53.60
41250;BME280;26984;59.928;30.306;2023-04-19T06:52:25;103108.28;;;8.64;52.46
41250;BME280;26984;59.928;30.306;2023-04-19T06:54:54;103099.66;;;8.70;52.74
41250;BME280;26984;59.928;30.306;2023-04-19T06:57:21;103104.88;;;8.81;52.07
41250;BME280;26984;59.928;30.306;2023-04-19T06:59:49;103109.81;;;8.96;52.77
41250;BME280;26984;59.928;30.306;2023-04-19T07:02:16;103106.38;;;9.03;52.23
41250;BME280;26984;59.928;30.306;2023-04-19T07:04:44;103106.44;;;8.94;52.53
41250;BME280;26984;59.928;30.306;2023-04-19T07:07:12;103107.44;;;8.73;52.30
41250;BME280;26984;59.928;30.306;2023-04-19T07:09:39;103102.63;;;8.67;52.38
41250;BME280;26984;59.928;30.306;2023-04-19T07:12:08;103111.56;;;8.48;52.79
41250;BME280;26984;59.928;30.306;2023-04-19T07:14:36;103116.38;;;8.54;52.64
41250;BME280;26984;59.928;30.306;2023-04-19T07:17:03;103116.50;;;8.53;52.02
41250;BME280;26984;59.928;30.306;2023-04-19T07:19:31;103112.44;;;8.58;52.42
41250;BME280;26984;59.928;30.306;2023-04-19T07:22:00;103121.72;;;8.64;52.29
41250;BME280;26984;59.928;30.306;2023-04-19T07:24:28;103113.81;;;8.62;52.34
41250;BME280;26984;59.928;30.306;2023-04-19T07:26:56;103108.16;;;8.75;52.62
41250;BME280;26984;59.928;30.306;2023-04-19T07:29:25;103115.91;;;8.98;52.22
41250;BME280;26984;59.928;30.306;2023-04-19T07:31:52;103112.03;;;9.10;51.53
41250;BME280;26984;59.928;30.306;2023-04-19T07:34:20;103111.84;;;9.21;51.07
41250;BME280;26984;59.928;30.306;2023-04-19T07:36:48;103108.38;;;9.39;50.77
41250;BME280;26984;59.928;30.306;2023-04-19T07:39:15;103118.72;;;9.43;50.65
41250;BME280;26984;59.928;30.306;2023-04-19T07:41:43;103117.63;;;9.36;50.41
41250;BME280;26984;59.928;30.306;2023-04-19T07:44:11;103103.47;;;9.34;50.03
41250;BME280;26984;59.928;30.306;2023-04-19T07:49:09;103117.47;;;9.38;49.02
41250;BME280;26984;59.928;30.306;2023-04-19T07:51:37;103115.78;;;9.37;48.84
41250;BME280;26984;59.928;30.306;2023-04-19T07:54:04;103116.88;;;9.44;48.73
41250;BME280;26984;59.928;30.306;2023-04-19T07:56:32;103114.31;;;9.42;48.83
41250;BME280;26984;59.928;30.306;2023-04-19T07:58:59;103115.19;;;9.43;48.50
41250;BME280;26984;59.928;30.306;2023-04-19T08:01:27;103116.44;;;9.48;48.12
41250;BME280;26984;59.928;30.306;2023-04-19T08:03:56;103113.69;;;9.58;48.03
41250;BME280;26984;59.928;30.306;2023-04-19T08:06:25;103118.66;;;9.80;47.37
41250;BME280;26984;59.928;30.306;2023-04-19T08:08:54;103116.38;;;9.86;46.72
41250;BME280;26984;59.928;30.306;2023-04-19T08:11:22;103111.94;;;9.94;45.84
41250;BME280;26984;59.928;30.306;2023-04-19T08:13:50;103116.25;;;10.05;46.40
41250;BME280;26984;59.928;30.306;2023-04-19T08:16:17;103119.81;;;10.23;45.35
41250;BME280;26984;59.928;30.306;2023-04-19T08:18:45;103112.03;;;10.20;44.84
41250;BME280;26984;59.928;30.306;2023-04-19T08:21:16;103120.41;;;10.17;43.88
41250;BME280;26984;59.928;30.306;2023-04-19T08:23:45;103107.69;;;10.10;44.06
41250;BME280;26984;59.928;30.306;2023-04-19T08:26:12;103113.25;;;10.08;43.97
41250;BME280;26984;59.928;30.306;2023-04-19T08:28:40;103107.09;;;10.16;43.27
41250;BME280;26984;59.928;30.306;2023-04-19T08:31:08;103102.91;;;10.31;42.36
41250;BME280;26984;59.928;30.306;2023-04-19T08:33:36;103109.53;;;10.37;41.87
41250;BME280;26984;59.928;30.306;2023-04-19T08:36:03;103105.16;;;10.36;41.83
41250;BME280;26984;59.928;30.306;2023-04-19T08:38:31;103109.66;;;10.35;41.86
41250;BME280;26984;59.928;30.306;2023-04-19T08:41:00;103108.22;;;10.41;41.99
41250;BME280;26984;59.928;30.306;2023-04-19T08:43:28;103106.78;;;10.28;41.72
41250;BME280;26984;59.928;30.306;2023-04-19T08:45:58;103104.63;;;10.32;42.37
41250;BME280;26984;59.928;30.306;2023-04-19T08:48:26;103092.56;;;10.44;42.19
41250;BME280;26984;59.928;30.306;2023-04-19T08:50:54;103097.88;;;10.54;41.48
41250;BME280;26984;59.928;30.306;2023-04-19T08:53:23;103094.78;;;10.67;41.83
41250;BME280;26984;59.928;30.306;2023-04-19T08:55:51;103097.56;;;10.75;40.31
41250;BME280;26984;59.928;30.306;2023-04-19T08:58:25;103087.00;;;10.82;41.41
41250;BME280;26984;59.928;30.306;2023-04-19T09:00:55;103081.84;;;10.96;40.56
41250;BME280;26984;59.928;30.306;2023-04-19T09:03:22;103085.28;;;11.07;39.69
41250;BME280;26984;59.928;30.306;2023-04-19T09:05:50;103082.53;;;11.24;39.55
41250;BME280;26984;59.928;30.306;2023-04-19T09:08:22;103088.81;;;11.41;38.98
41250;BME280;26984;59.928;30.306;2023-04-19T09:10:53;103081.13;;;11.55;38.34
41250;BME280;26984;59.928;30.306;2023-04-19T09:13:21;103084.88;;;11.70;38.53
41250;BME280;26984;59.928;30.306;2023-04-19T09:15:50;103080.88;;;11.82;38.16
41250;BME280;26984;59.928;30.306;2023-04-19T09:18:18;103077.38;;;11.98;38.30
41250;BME280;26984;59.928;30.306;2023-04-19T09:20:46;103078.91;;;12.09;37.99
41250;BME280;26984;59.928;30.306;2023-04-19T09:23:14;103078.44;;;12.13;37.89
41250;BME280;26984;59.928;30.306;2023-04-19T09:25:50;103076.59;;;12.22;38.34
41250;BME280;26984;59.928;30.306;2023-04-19T09:28:17;103074.06;;;12.37;37.89
41250;BME280;26984;59.928;30.306;2023-04-19T09:30:45;103064.25;;;12.44;38.19
41250;BME280;26984;59.928;30.306;2023-04-19T09:33:14;103070.84;;;12.58;37.97
41250;BME280;26984;59.928;30.306;2023-04-19T09:35:57;103072.50;;;12.75;37.93
41250;BME280;26984;59.928;30.306;2023-04-19T09:38:24;103067.56;;;12.87;37.40
41250;BME280;26984;59.928;30.306;2023-04-19T09:40:52;103079.25;;;12.96;38.21
41250;BME280;26984;59.928;30.306;2023-04-19T09:43:31;103067.03;;;13.08;38.25
41250;BME280;26984;59.928;30.306;2023-04-19T09:45:59;103073.28;;;13.08;38.20
41250;BME280;26984;59.928;30.306;2023-04-19T09:48:28;103073.63;;;13.05;37.70
41250;BME280;26984;59.928;30.306;2023-04-19T09:50:56;103072.78;;;13.05;38.39
41250;BME280;26984;59.928;30.306;2023-04-19T09:53:24;103073.44;;;13.15;37.44
41250;BME280;26984;59.928;30.306;2023-04-19T09:55:53;103068.91;;;12.99;38.07
41250;BME280;26984;59.928;30.306;2023-04-19T09:58:20;103073.31;;;13.00;37.76
41250;BME280;26984;59.928;30.306;2023-04-19T10:00:48;103070.97;;;12.89;36.99
41250;BME280;26984;59.928;30.306;2023-04-19T10:03:17;103070.97;;;12.73;36.19
41250;BME280;26984;59.928;30.306;2023-04-19T10:05:48;103072.34;;;12.68;36.13
41250;BME280;26984;59.928;30.306;2023-04-19T10:08:16;103074.22;;;12.60;35.74
41250;BME280;26984;59.928;30.306;2023-04-19T10:10:44;103071.16;;;12.55;36.30
41250;BME280;26984;59.928;30.306;2023-04-19T10:13:15;103064.41;;;12.59;36.70
41250;BME280;26984;59.928;30.306;2023-04-19T10:15:44;103063.91;;;12.63;35.92
41250;BME280;26984;59.928;30.306;2023-04-19T10:18:11;103063.03;;;12.79;37.68
41250;BME280;26984;59.928;30.306;2023-04-19T10:20:41;103053.22;;;12.86;37.04
41250;BME280;26984;59.928;30.306;2023-04-19T10:23:16;103062.66;;;12.90;35.17
41250;BME280;26984;59.928;30.306;2023-04-19T10:25:44;103062.19;;;12.79;35.68
41250;BME280;26984;59.928;30.306;2023-04-19T10:28:12;103058.13;;;12.83;35.92
41250;BME280;26984;59.928;30.306;2023-04-19T10:30:51;103045.91;;;13.03;35.45
41250;BME280;26984;59.928;30.306;2023-04-19T10:33:23;103052.13;;;13.12;34.40
41250;BME280;26984;59.928;30.306;2023-04-19T10:35:50;103041.88;;;12.99;34.64
41250;BME280;26984;59.928;30.306;2023-04-19T10:38:24;103054.56;;;12.90;35.31
41250;BME280;26984;59.928;30.306;2023-04-19T10:41:01;103050.34;;;12.88;35.29
41250;BME280;26984;59.928;30.306;2023-04-19T10:43:29;103046.31;;;12.76;35.16
41250;BME280;26984;59.928;30.306;2023-04-19T10:45:58;103044.94;;;12.80;34.09
41250;BME280;26984;59.928;30.306;2023-04-19T10:48:33;103046.47;;;12.82;34.58
41250;BME280;26984;59.928;30.306;2023-04-19T10:51:03;103053.56;;;12.91;34.02
41250;BME280;26984;59.928;30.306;2023-04-19T10:53:49;103041.03;;;12.99;33.46
41250;BME280;26984;59.928;30.306;2023-04-19T10:56:19;103048.16;;;12.91;33.59
41250;BME280;26984;59.928;30.306;2023-04-19T11:01:37;103039.66;;;12.94;33.40
41250;BME280;26984;59.928;30.306;2023-04-19T11:04:05;103033.56;;;13.01;33.37
41250;BME280;26984;59.928;30.306;2023-04-19T11:06:33;103031.16;;;13.14;33.14
41250;BME280;26984;59.928;30.306;2023-04-19T11:09:04;103033.84;;;13.14;32.57
41250;BME280;26984;59.928;30.306;2023-04-19T11:11:32;103034.00;;;13.12;33.63
41250;BME280;26984;59.928;30.306;2023-04-19T11:14:02;103028.94;;;13.17;33.16
41250;BME280;26984;59.928;30.306;2023-04-19T11:16:30;103026.72;;;13.21;32.19
41250;BME280;26984;59.928;30.306;2023-04-19T11:18:57;103034.34;;;13.26;32.43
41250;BME280;26984;59.928;30.306;2023-04-19T11:21:25;103029.25;;;13.23;32.14
41250;BME280;26984;59.928;30.306;2023-04-19T11:24:07;103026.91;;;13.28;33.22
41250;BME280;26984;59.928;30.306;2023-04-19T11:26:34;103025.13;;;13.43;33.37
41250;BME280;26984;59.928;30.306;2023-04-19T11:29:02;103025.28;;;13.50;32.87
41250;BME280;26984;59.928;30.306;2023-04-19T11:31:31;103024.78;;;13.46;32.36
41250;BME280;26984;59.928;30.306;2023-04-19T11:33:58;103024.63;;;13.39;32.19
41250;BME280;26984;59.928;30.306;2023-04-19T11:36:26;103023.41;;;12.94;33.15
41250;BME280;26984;59.928;30.306;2023-04-19T11:38:53;103023.13;;;12.89;34.31
41250;BME280;26984;59.928;30.306;2023-04-19T11:41:22;103028.97;;;13.01;33.87
41250;BME280;26984;59.928;30.306;2023-04-19T11:43:50;103022.19;;;13.05;33.63
41250;BME280;26984;59.928;30.306;2023-04-19T11:46:18;103016.59;;;13.15;33.95
41250;BME280;26984;59.928;30.306;2023-04-19T11:48:49;103019.63;;;13.20;33.48
41250;BME280;26984;59.928;30.306;2023-04-19T11:51:18;103010.41;;;13.37;32.74
41250;BME280;26984;59.928;30.306;2023-04-19T11:53:45;103025.41;;;13.56;33.11
41250;BME280;26984;59.928;30.306;2023-04-19T11:56:13;103021.94;;;13.71;32.27
41250;BME280;26984;59.928;30.306;2023-04-19T11:58:43;103025.13;;;13.97;31.53
41250;BME280;26984;59.928;30.306;2023-04-19T12:01:14;103029.91;;;13.95;31.33
41250;BME280;26984;59.928;30.306;2023-04-19T12:03:43;103023.75;;;14.01;31.73
41250;BME280;26984;59.928;30.306;2023-04-19T12:06:12;103008.28;;;14.10;31.80
41250;BME280;26984;59.928;30.306;2023-04-19T12:08:41;103016.53;;;14.17;30.75
41250;BME280;26984;59.928;30.306;2023-04-19T12:11:09;103015.56;;;14.09;30.97
41250;BME280;26984;59.928;30.306;2023-04-19T12:13:37;103015.13;;;14.21;30.70
41250;BME280;26984;59.928;30.306;2023-04-19T12:16:07;103010.19;;;14.24;31.46
41250;BME280;26984;59.928;30.306;2023-04-19T12:18:41;103010.53;;;14.21;31.00
41250;BME280;26984;59.928;30.306;2023-04-19T12:21:10;103011.09;;;14.17;30.90
41250;BME280;26984;59.928;30.306;2023-04-19T12:23:38;103012.09;;;14.16;30.83
41250;BME280;26984;59.928;30.306;2023-04-19T12:26:06;103006.31;;;14.19;30.58
41250;BME280;26984;59.928;30.306;2023-04-19T12:28:33;103004.16;;;14.14;30.13
41250;BME280;26984;59.928;30.306;2023-04-19T12:31:01;102996.72;;;13.93;30.85
41250;BME280;26984;59.928;30.306;2023-04-19T12:33:30;102997.84;;;13.76;30.99
41250;BME280;26984;59.928;30.306;2023-04-19T12:35:58;102998.47;;;13.63;31.64
41250;BME280;26984;59.928;30.306;2023-04-19T12:38:25;103000.69;;;13.59;31.35
41250;BME280;26984;59.928;30.306;2023-04-19T12:40:53;103003.38;;;13.59;31.03
41250;BME280;26984;59.928;30.306;2023-04-19T12:43:20;102995.41;;;13.66;31.25
41250;BME280;26984;59.928;30.306;2023-04-19T12:45:48;102997.63;;;13.62;31.42
41250;BME280;26984;59.928;30.306;2023-04-19T12:48:15;102992.41;;;13.53;32.00
41250;BME280;26984;59.928;30.306;2023-04-19T12:50:44;102997.84;;;13.53;31.83
41250;BME280;26984;59.928;30.306;2023-04-19T12:53:12;102991.81;;;13.43;31.78
41250;BME280;26984;59.928;30.306;2023-04-19T12:55:40;102990.91;;;13.50;31.46
41250;BME280;26984;59.928;30.306;2023-04-19T12:58:07;102983.94;;;13.56;31.95
41250;BME280;26984;59.928;30.306;2023-04-19T13:00:35;102987.97;;;13.60;31.81